createdAt,value
2018-04-30T00:00:51.250Z,17.10
2018-04-30T00:03:19.562Z,17.03
2018-04-30T00:05:47.924Z,17.16
2018-04-30T00:08:16.256Z,17.31
2018-04-30T00:10:44.614Z,17.07
2018-04-30T00:13:14.473Z,17.03
2018-04-30T00:15:42.820Z,16.88
2018-04-30T00:18:11.187Z,17.09
2018-04-30T00:20:40.277Z,16.93
2018-04-30T00:23:09.386Z,17.00
2018-04-30T00:25:37.705Z,17.02
2018-04-30T00:28:06.074Z,16.89
2018-04-30T00:30:34.412Z,17.10
2018-04-30T00:33:02.808Z,17.00
2018-04-30T00:35:31.126Z,17.05
2018-04-30T00:37:59.460Z,17.02
2018-04-30T00:40:27.832Z,16.82
2018-04-30T00:42:56.160Z,16.79
2018-04-30T00:45:24.532Z,16.85
2018-04-30T00:47:52.975Z,16.82
2018-04-30T00:50:22.480Z,16.61
2018-04-30T00:52:50.828Z,16.59
2018-04-30T00:55:19.974Z,16.69
2018-04-30T00:57:48.344Z,16.71
2018-04-30T01:00:16.810Z,16.81
2018-04-30T01:02:45.185Z,16.71
2018-04-30T01:05:13.511Z,16.72
2018-04-30T01:07:41.876Z,16.43
2018-04-30T01:10:10.219Z,16.23
2018-04-30T01:12:39.294Z,16.44
2018-04-30T01:15:07.678Z,16.44
2018-04-30T01:17:36.020Z,16.44
2018-04-30T01:20:04.341Z,16.39
2018-04-30T01:22:32.720Z,16.31
2018-04-30T01:25:01.045Z,16.10
2018-04-30T01:27:29.367Z,16.30
2018-04-30T01:29:57.728Z,16.34
2018-04-30T01:32:26.813Z,16.25
2018-04-30T01:34:55.944Z,16.13
2018-04-30T01:37:24.266Z,16.03
2018-04-30T01:39:52.640Z,15.91
2018-04-30T01:42:20.995Z,16.21
2018-04-30T01:44:50.071Z,16.19
2018-04-30T01:47:19.237Z,16.18
2018-04-30T01:49:47.594Z,16.21
2018-04-30T01:52:15.931Z,16.09
2018-04-30T01:54:45.272Z,16.01
2018-04-30T01:57:14.457Z,15.90
2018-04-30T01:59:42.907Z,16.07
2018-04-30T02:02:11.367Z,15.99
2018-04-30T02:04:40.175Z,15.94
2018-04-30T02:07:09.487Z,15.88
2018-04-30T02:09:37.809Z,15.87
2018-04-30T02:12:06.973Z,15.85
2018-04-30T02:14:36.068Z,15.76
2018-04-30T02:17:04.459Z,15.66
2018-04-30T02:19:32.885Z,15.79
2018-04-30T02:22:01.382Z,15.75
2018-04-30T02:24:29.735Z,15.66
2018-04-30T02:26:58.127Z,15.76
2018-04-30T02:29:26.722Z,15.81
2018-04-30T02:31:55.638Z,15.71
2018-04-30T02:34:28.035Z,15.72
2018-04-30T02:36:57.411Z,15.76
2018-04-30T02:39:26.559Z,15.79
2018-04-30T02:41:56.764Z,15.65
2018-04-30T02:44:26.556Z,15.74
2018-04-30T02:46:56.468Z,15.65
2018-04-30T02:49:29.524Z,15.68
2018-04-30T02:51:57.949Z,15.74
2018-04-30T02:54:26.391Z,15.64
2018-04-30T02:56:54.880Z,15.59
2018-04-30T02:59:24.017Z,15.46
2018-04-30T03:01:54.415Z,15.43
2018-04-30T03:04:23.791Z,15.43
2018-04-30T03:06:52.992Z,15.47
2018-04-30T03:09:21.327Z,15.39
2018-04-30T03:11:50.456Z,15.40
2018-04-30T03:14:18.784Z,15.40
2018-04-30T03:16:47.116Z,15.29
2018-04-30T03:19:15.486Z,15.12
2018-04-30T03:21:43.818Z,14.98
2018-04-30T03:24:12.576Z,15.00
2018-04-30T03:26:41.714Z,15.03
2018-04-30T03:29:10.074Z,15.18
2018-04-30T03:31:38.448Z,15.07
2018-04-30T03:34:08.300Z,14.98
2018-04-30T03:36:36.652Z,15.09
2018-04-30T03:39:05.752Z,15.10
2018-04-30T03:41:34.877Z,15.10
2018-04-30T03:44:03.177Z,15.06
2018-04-30T03:46:31.511Z,15.21
2018-04-30T03:48:59.886Z,15.17
2018-04-30T03:51:28.964Z,15.08
2018-04-30T03:53:58.106Z,15.16
2018-04-30T03:56:26.434Z,15.06
2018-04-30T03:58:54.776Z,14.97
2018-04-30T04:01:40.853Z,14.92
2018-04-30T04:04:27.133Z,15.14
2018-04-30T04:06:55.494Z,15.21
2018-04-30T04:09:24.588Z,15.17
2018-04-30T04:11:52.949Z,15.14
2018-04-30T04:14:22.061Z,15.25
2018-04-30T04:16:51.197Z,15.30
2018-04-30T04:19:19.500Z,15.32
2018-04-30T04:21:47.867Z,15.29
2018-04-30T04:24:16.249Z,15.24
2018-04-30T04:26:44.595Z,15.19
2018-04-30T04:29:12.976Z,15.24
2018-04-30T04:31:41.544Z,15.27
2018-04-30T04:34:09.863Z,15.31
2018-04-30T04:36:38.222Z,15.24
2018-04-30T04:39:06.577Z,15.27
2018-04-30T04:41:35.019Z,15.31
2018-04-30T04:44:03.381Z,15.33
2018-04-30T04:46:31.775Z,15.47
2018-04-30T04:49:00.108Z,15.54
2018-04-30T04:51:28.474Z,15.63
2018-04-30T04:53:56.802Z,15.70
2018-04-30T04:56:25.177Z,15.80
2018-04-30T04:58:53.508Z,15.85
2018-04-30T05:01:21.895Z,15.95
2018-04-30T05:03:50.214Z,16.04
2018-04-30T05:06:18.565Z,16.13
2018-04-30T05:08:46.934Z,16.22
2018-04-30T05:11:15.293Z,16.33
2018-04-30T05:13:43.655Z,16.41
2018-04-30T05:16:12.030Z,16.52
2018-04-30T05:18:41.137Z,16.59
2018-04-30T05:21:09.497Z,16.66
2018-04-30T05:23:38.597Z,16.71
2018-04-30T05:26:07.724Z,16.78
2018-04-30T05:28:36.951Z,16.85
2018-04-30T05:31:05.296Z,16.87
2018-04-30T05:33:33.607Z,16.89
2018-04-30T05:36:01.961Z,16.93
2018-04-30T05:38:30.383Z,16.94
2018-04-30T05:40:58.779Z,16.97
2018-04-30T05:43:27.145Z,17.07
2018-04-30T05:45:55.510Z,17.13
2018-04-30T05:48:23.824Z,17.16
2018-04-30T05:50:52.930Z,17.26
2018-04-30T05:53:22.653Z,17.37
2018-04-30T05:55:51.954Z,17.47
2018-04-30T05:58:20.276Z,17.57
2018-04-30T06:00:48.650Z,17.67
2018-04-30T06:03:18.493Z,17.78
2018-04-30T06:05:47.487Z,17.87
2018-04-30T06:08:17.346Z,17.96
2018-04-30T06:10:45.692Z,18.05
2018-04-30T06:13:14.082Z,18.20
2018-04-30T06:15:42.937Z,18.36
2018-04-30T06:18:12.117Z,18.47
2018-04-30T06:20:40.454Z,18.61
2018-04-30T06:23:08.759Z,18.77
2018-04-30T06:25:37.245Z,18.95
2018-04-30T06:28:06.335Z,19.13
2018-04-30T06:30:34.725Z,19.34
2018-04-30T06:33:03.040Z,19.56
2018-04-30T06:35:31.401Z,19.75
2018-04-30T06:38:00.757Z,19.95
2018-04-30T06:40:29.107Z,20.06
2018-04-30T06:42:57.516Z,20.14
2018-04-30T06:45:25.845Z,20.25
2018-04-30T06:47:54.657Z,20.30
2018-04-30T06:50:22.987Z,20.36
2018-04-30T06:52:51.370Z,20.41
2018-04-30T06:55:20.459Z,20.43
2018-04-30T06:57:50.626Z,20.47
2018-04-30T07:00:19.191Z,20.56
2018-04-30T07:02:47.520Z,20.70
2018-04-30T07:05:15.872Z,20.86
2018-04-30T07:07:45.325Z,21.12
2018-04-30T07:10:14.409Z,21.36
2018-04-30T07:12:43.897Z,21.49
2018-04-30T07:15:12.195Z,21.53
2018-04-30T07:17:40.752Z,21.60
2018-04-30T07:20:09.993Z,21.70
2018-04-30T07:22:39.433Z,21.94
2018-04-30T07:25:07.743Z,22.16
2018-04-30T07:27:36.211Z,22.36
2018-04-30T07:30:04.508Z,22.64
2018-04-30T07:32:33.673Z,22.93
2018-04-30T07:35:02.015Z,23.26
2018-04-30T07:37:30.352Z,23.51
2018-04-30T07:39:58.709Z,23.86
2018-04-30T07:42:27.027Z,24.14
2018-04-30T07:44:56.140Z,24.48
2018-04-30T07:47:24.469Z,24.60
2018-04-30T07:49:52.815Z,24.75
2018-04-30T07:52:21.122Z,24.77
2018-04-30T07:54:49.480Z,24.89
2018-04-30T07:57:17.887Z,25.06
2018-04-30T07:59:46.176Z,25.24
2018-04-30T08:02:15.308Z,25.24
2018-04-30T08:04:43.671Z,25.27
2018-04-30T08:07:12.772Z,25.30
2018-04-30T08:09:41.080Z,25.17
2018-04-30T08:12:10.262Z,25.03
2018-04-30T08:14:38.575Z,24.92
2018-04-30T08:17:06.887Z,24.75
2018-04-30T08:19:36.017Z,24.62
2018-04-30T08:22:04.374Z,24.51
2018-04-30T08:24:33.504Z,24.42
2018-04-30T08:27:01.889Z,24.41
2018-04-30T08:29:30.212Z,24.37
2018-04-30T08:31:59.342Z,24.31
2018-04-30T08:34:28.510Z,24.25
2018-04-30T08:36:56.837Z,24.20
2018-04-30T08:39:25.696Z,24.18
2018-04-30T08:41:54.037Z,24.19
2018-04-30T08:44:23.136Z,24.03
2018-04-30T08:46:52.240Z,23.82
2018-04-30T08:49:21.311Z,23.93
2018-04-30T08:51:49.632Z,23.86
2018-04-30T08:54:17.971Z,23.97
2018-04-30T08:56:46.284Z,23.91
2018-04-30T08:59:14.625Z,23.98
2018-04-30T09:01:42.948Z,24.03
2018-04-30T09:04:11.352Z,24.15
2018-04-30T09:06:40.912Z,24.28
2018-04-30T09:09:09.404Z,24.45
2018-04-30T09:11:37.751Z,24.58
2018-04-30T09:14:06.118Z,24.55
2018-04-30T09:16:36.447Z,24.57
2018-04-30T09:19:04.935Z,24.48
2018-04-30T09:21:34.679Z,24.47
2018-04-30T09:24:03.096Z,24.54
2018-04-30T09:26:31.468Z,24.91
2018-04-30T09:28:59.804Z,25.22
2018-04-30T09:31:29.071Z,25.60
2018-04-30T09:34:00.208Z,25.85
2018-04-30T09:36:29.282Z,26.36
2018-04-30T09:38:57.849Z,26.82
2018-04-30T09:41:39.996Z,26.44
2018-04-30T09:44:08.321Z,26.36
2018-04-30T09:46:36.936Z,25.79
2018-04-30T09:49:05.406Z,25.80
2018-04-30T09:51:33.968Z,26.73
2018-04-30T09:54:03.060Z,26.85
2018-04-30T09:56:31.446Z,26.38
2018-04-30T09:59:04.278Z,26.40
2018-04-30T10:01:33.603Z,26.69
2018-04-30T10:04:01.953Z,26.84
2018-04-30T10:06:31.079Z,26.11
2018-04-30T10:08:59.692Z,25.75
2018-04-30T10:11:28.480Z,26.79
2018-04-30T10:13:57.791Z,26.66
2018-04-30T10:16:26.137Z,26.69
2018-04-30T10:18:54.933Z,25.22
2018-04-30T10:21:23.296Z,25.26
2018-04-30T10:23:51.985Z,24.62
2018-04-30T10:26:20.324Z,24.03
2018-04-30T10:28:48.674Z,24.33
2018-04-30T10:31:17.053Z,23.98
2018-04-30T10:33:45.530Z,23.08
2018-04-30T10:36:14.223Z,23.11
2018-04-30T10:38:42.642Z,22.62
2018-04-30T10:41:11.147Z,22.53
2018-04-30T10:43:40.296Z,22.90
2018-04-30T10:46:09.111Z,22.76
2018-04-30T10:48:37.571Z,22.97
2018-04-30T10:51:07.567Z,22.85
2018-04-30T10:53:36.006Z,22.54
2018-04-30T10:56:04.384Z,22.47
2018-04-30T10:58:32.873Z,22.48
2018-04-30T11:01:04.690Z,22.37
2018-04-30T11:03:39.262Z,22.37
2018-04-30T11:06:07.676Z,22.39
2018-04-30T11:08:36.036Z,22.67
2018-04-30T11:11:04.534Z,22.94
2018-04-30T11:13:33.088Z,23.40
2018-04-30T11:16:01.414Z,23.09
2018-04-30T11:18:30.584Z,23.16
2018-04-30T11:20:59.669Z,24.08
2018-04-30T11:23:29.745Z,24.68
2018-04-30T11:25:58.127Z,25.04
2018-04-30T11:28:26.556Z,25.04
2018-04-30T11:30:54.918Z,25.20
2018-04-30T11:33:23.363Z,25.66
2018-04-30T11:35:52.538Z,25.74
2018-04-30T11:38:21.687Z,25.62
2018-04-30T11:40:50.024Z,25.70
2018-04-30T11:43:18.395Z,25.41
2018-04-30T11:45:46.724Z,25.84
2018-04-30T11:48:15.092Z,26.08
2018-04-30T11:50:44.065Z,26.40
2018-04-30T11:53:12.429Z,25.99
2018-04-30T11:55:41.368Z,25.93
2018-04-30T11:58:09.731Z,25.18
2018-04-30T12:00:38.224Z,25.09
2018-04-30T12:03:08.192Z,24.98
2018-04-30T12:05:36.964Z,24.61
2018-04-30T12:08:05.566Z,24.18
2018-04-30T12:10:34.003Z,24.04
2018-04-30T12:13:02.435Z,24.28
2018-04-30T12:15:31.699Z,24.31
2018-04-30T12:18:01.776Z,24.16
2018-04-30T12:20:30.208Z,24.11
2018-04-30T12:22:58.629Z,23.72
2018-04-30T12:25:27.015Z,23.15
2018-04-30T12:27:55.803Z,22.72
2018-04-30T12:30:25.713Z,22.79
2018-04-30T12:32:54.226Z,23.31
2018-04-30T12:35:23.518Z,23.31
2018-04-30T12:37:53.308Z,23.94
2018-04-30T12:40:22.531Z,23.73
2018-04-30T12:42:51.701Z,23.98
2018-04-30T12:45:20.096Z,24.59
2018-04-30T12:47:49.421Z,24.36
2018-04-30T12:50:20.095Z,24.69
2018-04-30T12:52:49.505Z,25.58
2018-04-30T12:55:19.293Z,25.10
2018-04-30T12:57:47.634Z,25.47
2018-04-30T13:00:15.967Z,25.43
2018-04-30T13:02:44.327Z,25.29
2018-04-30T13:05:12.689Z,24.82
2018-04-30T13:07:41.832Z,25.56
2018-04-30T13:10:10.195Z,25.71
2018-04-30T13:12:38.672Z,25.02
2018-04-30T13:15:06.992Z,24.53
2018-04-30T13:17:35.724Z,24.41
2018-04-30T13:20:04.070Z,24.32
2018-04-30T13:22:32.402Z,24.16
2018-04-30T13:25:02.739Z,24.17
2018-04-30T13:27:31.082Z,24.32
2018-04-30T13:29:59.444Z,24.04
2018-04-30T13:32:28.539Z,24.23
2018-04-30T13:34:58.513Z,24.37
2018-04-30T13:37:26.854Z,24.58
2018-04-30T13:39:55.209Z,24.74
2018-04-30T13:42:24.325Z,24.76
2018-04-30T13:44:52.729Z,24.77
2018-04-30T13:47:21.209Z,25.04
2018-04-30T13:49:49.512Z,25.21
2018-04-30T13:52:19.001Z,25.33
2018-04-30T13:54:47.351Z,25.31
2018-04-30T13:57:15.699Z,25.52
2018-04-30T13:59:44.875Z,25.20
2018-04-30T14:02:13.598Z,24.70
2018-04-30T14:04:41.941Z,24.54
2018-04-30T14:07:11.704Z,24.34
2018-04-30T14:09:40.076Z,24.14
2018-04-30T14:12:08.879Z,24.50
2018-04-30T14:14:38.473Z,23.86
2018-04-30T14:17:06.827Z,24.40
2018-04-30T14:19:35.930Z,24.64
2018-04-30T14:22:04.654Z,24.60
2018-04-30T14:24:32.983Z,24.32
2018-04-30T14:27:01.740Z,24.14
2018-04-30T14:29:30.053Z,24.23
2018-04-30T14:31:59.185Z,23.74
2018-04-30T14:34:27.492Z,23.98
2018-04-30T14:36:55.852Z,24.36
2018-04-30T14:39:24.158Z,24.54
2018-04-30T14:41:53.291Z,24.36
2018-04-30T14:44:22.720Z,23.70
2018-04-30T14:46:51.292Z,23.30
2018-04-30T14:49:19.621Z,22.89
2018-04-30T14:51:48.740Z,22.75
2018-04-30T14:54:18.220Z,22.36
2018-04-30T14:56:46.551Z,22.07
2018-04-30T14:59:14.908Z,21.97
2018-04-30T15:01:43.992Z,21.76
2018-04-30T15:04:12.400Z,21.64
2018-04-30T15:06:40.711Z,21.70
2018-04-30T15:09:09.064Z,21.59
2018-04-30T15:11:37.438Z,21.41
2018-04-30T15:14:05.750Z,21.37
2018-04-30T15:16:34.111Z,21.24
2018-04-30T15:19:02.428Z,21.10
2018-04-30T15:21:32.467Z,21.13
2018-04-30T15:24:00.783Z,21.27
2018-04-30T15:26:29.144Z,21.20
2018-04-30T15:28:57.502Z,21.11
2018-04-30T15:31:25.844Z,20.95
2018-04-30T15:33:54.924Z,20.88
2018-04-30T15:36:23.364Z,20.78
2018-04-30T15:38:51.690Z,20.80
2018-04-30T15:41:21.542Z,20.70
2018-04-30T15:43:49.856Z,20.66
2018-04-30T15:46:18.195Z,20.61
2018-04-30T15:48:46.513Z,20.55
2018-04-30T15:51:14.882Z,20.38
2018-04-30T15:53:43.224Z,20.44
2018-04-30T15:56:11.557Z,20.59
2018-04-30T15:58:39.902Z,20.46
2018-04-30T16:01:08.276Z,20.39
2018-04-30T16:03:36.600Z,20.41
2018-04-30T16:06:05.720Z,20.35
2018-04-30T16:08:34.028Z,20.39
2018-04-30T16:11:03.373Z,20.32
2018-04-30T16:13:32.478Z,20.29
2018-04-30T16:16:00.837Z,20.24
2018-04-30T16:18:30.085Z,20.22
2018-04-30T16:20:58.415Z,20.35
2018-04-30T16:23:26.766Z,20.31
2018-04-30T16:25:55.121Z,20.28
2018-04-30T16:28:24.992Z,20.24
2018-04-30T16:30:54.125Z,20.23
2018-04-30T16:33:22.488Z,20.20
2018-04-30T16:35:50.807Z,20.22
2018-04-30T16:38:19.247Z,20.21
2018-04-30T16:40:48.380Z,20.34
2018-04-30T16:43:16.759Z,20.48
2018-04-30T16:45:45.092Z,20.32
2018-04-30T16:48:13.440Z,20.34
2018-04-30T16:50:41.776Z,20.42
2018-04-30T16:53:10.150Z,20.43
2018-04-30T16:55:38.480Z,20.31
2018-04-30T16:58:07.617Z,20.39
2018-04-30T17:00:35.963Z,20.39
2018-04-30T17:03:04.299Z,20.43
2018-04-30T17:05:33.957Z,20.39
2018-04-30T17:08:02.327Z,20.14
2018-04-30T17:10:32.175Z,20.00
2018-04-30T17:13:12.621Z,19.87
2018-04-30T17:15:41.500Z,19.76
2018-04-30T17:18:10.850Z,19.83
2018-04-30T17:20:39.268Z,19.97
2018-04-30T17:23:07.737Z,20.12
2018-04-30T17:25:36.114Z,20.19
2018-04-30T17:28:08.409Z,20.30
2018-04-30T17:30:38.722Z,20.30
2018-04-30T17:33:10.066Z,20.16
2018-04-30T17:35:38.515Z,20.06
2018-04-30T17:38:06.947Z,20.46
2018-04-30T17:40:35.348Z,20.50
2018-04-30T17:43:03.759Z,20.26
2018-04-30T17:45:32.024Z,19.83
2018-04-30T17:48:00.782Z,19.51
2018-04-30T17:50:29.183Z,19.28
2018-04-30T17:52:57.519Z,19.17
2018-04-30T17:55:25.919Z,18.98
2018-04-30T17:57:54.293Z,18.72
2018-04-30T18:00:23.401Z,18.59
2018-04-30T18:02:51.754Z,18.43
2018-04-30T18:05:20.219Z,18.22
2018-04-30T18:07:48.592Z,18.02
2018-04-30T18:10:17.707Z,17.80
2018-04-30T18:12:46.143Z,17.58
2018-04-30T18:15:14.917Z,17.36
2018-04-30T18:17:43.415Z,17.13
2018-04-30T18:20:12.343Z,16.93
2018-04-30T18:22:41.025Z,16.75
2018-04-30T18:25:09.390Z,16.56
2018-04-30T18:27:38.557Z,16.41
2018-04-30T18:30:09.449Z,16.27
2018-04-30T18:32:41.790Z,16.17
2018-04-30T18:35:13.119Z,16.01
2018-04-30T18:37:41.514Z,15.84
2018-04-30T18:40:09.951Z,15.65
2018-04-30T18:42:38.264Z,15.51
2018-04-30T18:45:08.876Z,15.34
2018-04-30T18:47:37.312Z,15.20
2018-04-30T18:50:08.854Z,15.15
2018-04-30T18:52:37.247Z,15.03
2018-04-30T18:55:06.305Z,14.92
2018-04-30T18:57:35.448Z,14.83
2018-04-30T19:00:04.269Z,14.68
2018-04-30T19:02:32.659Z,14.57
2018-04-30T19:05:00.985Z,14.50
2018-04-30T19:07:29.420Z,14.41
2018-04-30T19:09:59.503Z,14.28
2018-04-30T19:12:27.893Z,14.18
2018-04-30T19:14:56.247Z,14.16
2018-04-30T19:17:24.598Z,14.21
2018-04-30T19:19:52.970Z,14.13
2018-04-30T19:22:21.301Z,14.03
2018-04-30T19:24:49.725Z,14.05
2018-04-30T19:27:18.807Z,14.00
2018-04-30T19:29:49.243Z,13.91
2018-04-30T19:32:18.348Z,13.87
2018-04-30T19:34:47.261Z,13.83
2018-04-30T19:37:16.414Z,13.74
2018-04-30T19:39:46.510Z,13.69
2018-04-30T19:42:15.361Z,13.70
2018-04-30T19:44:44.975Z,13.76
2018-04-30T19:47:14.898Z,13.80
2018-04-30T19:49:44.219Z,13.76
2018-04-30T19:52:12.676Z,13.85
2018-04-30T19:54:41.725Z,13.79
2018-04-30T19:57:10.071Z,13.77
2018-04-30T19:59:38.950Z,13.77
2018-04-30T20:02:07.626Z,13.67
2018-04-30T20:04:36.817Z,13.58
2018-04-30T20:07:05.353Z,13.48
2018-04-30T20:09:34.477Z,13.41
2018-04-30T20:12:02.991Z,13.36
2018-04-30T20:14:31.385Z,13.34
2018-04-30T20:17:00.484Z,13.32
2018-04-30T20:19:28.920Z,13.35
2018-04-30T20:21:57.234Z,13.30
2018-04-30T20:24:26.536Z,13.20
2018-04-30T20:26:59.715Z,13.32
2018-04-30T20:29:28.144Z,13.30
2018-04-30T20:31:57.578Z,13.27
2018-04-30T20:34:26.748Z,13.30
2018-04-30T20:36:55.767Z,13.18
2018-04-30T20:39:26.344Z,13.15
2018-04-30T20:41:56.688Z,13.18
2018-04-30T20:44:26.718Z,13.16
2018-04-30T20:46:55.779Z,13.06
2018-04-30T20:49:24.263Z,13.03
2018-04-30T20:51:54.132Z,12.92
2018-04-30T20:54:24.009Z,12.87
2018-04-30T20:56:54.122Z,12.80
2018-04-30T20:59:24.151Z,12.72
2018-04-30T21:01:52.534Z,12.65
2018-04-30T21:04:22.802Z,12.64
2018-04-30T21:06:51.344Z,12.60
2018-04-30T21:09:20.555Z,12.61
2018-04-30T21:11:49.392Z,12.60
2018-04-30T21:14:19.493Z,12.54
2018-04-30T21:16:48.900Z,12.52
2018-04-30T21:19:18.394Z,12.49
2018-04-30T21:21:46.751Z,12.50
2018-04-30T21:24:15.572Z,12.50
2018-04-30T21:26:44.773Z,12.29
2018-04-30T21:29:13.838Z,12.37
2018-04-30T21:31:43.878Z,12.60
2018-04-30T21:34:12.239Z,12.54
2018-04-30T21:36:40.619Z,12.50
2018-04-30T21:39:08.953Z,12.38
2018-04-30T21:41:38.072Z,12.40
2018-04-30T21:44:07.169Z,12.48
2018-04-30T21:46:35.504Z,12.47
2018-04-30T21:49:04.576Z,12.40
2018-04-30T21:51:32.932Z,12.46
2018-04-30T21:54:01.257Z,12.52
2018-04-30T21:56:30.394Z,12.57
2018-04-30T21:58:58.786Z,12.63
2018-04-30T22:01:27.119Z,12.64
2018-04-30T22:03:55.482Z,12.69
2018-04-30T22:06:24.575Z,12.75
2018-04-30T22:08:53.733Z,12.74
2018-04-30T22:11:22.069Z,12.68
2018-04-30T22:13:50.465Z,12.69
2018-04-30T22:16:18.799Z,12.66
2018-04-30T22:18:47.934Z,12.51
2018-04-30T22:21:16.302Z,12.43
2018-04-30T22:23:44.635Z,12.45
2018-04-30T22:26:12.986Z,12.54
2018-04-30T22:28:41.349Z,12.60
2018-04-30T22:31:09.661Z,12.61
2018-04-30T22:33:38.018Z,12.58
2018-04-30T22:36:06.370Z,12.63
2018-04-30T22:38:34.717Z,12.68
2018-04-30T22:41:03.861Z,12.79
2018-04-30T22:43:32.229Z,12.90
2018-04-30T22:46:00.629Z,12.93
2018-04-30T22:48:29.709Z,12.88
2018-04-30T22:50:58.077Z,12.78
2018-04-30T22:53:27.178Z,12.67
2018-04-30T22:55:55.549Z,12.56
2018-04-30T22:58:23.859Z,12.43
2018-04-30T23:00:52.228Z,12.31
2018-04-30T23:03:20.558Z,12.22
2018-04-30T23:05:49.669Z,12.14
2018-04-30T23:08:18.007Z,12.19
2018-04-30T23:10:46.359Z,12.08
2018-04-30T23:13:14.669Z,12.02
2018-04-30T23:15:43.801Z,12.06
2018-04-30T23:18:12.189Z,11.94
2018-04-30T23:20:40.516Z,11.88
2018-04-30T23:23:08.867Z,11.84
2018-04-30T23:25:37.208Z,11.73
2018-04-30T23:28:05.557Z,11.68
2018-04-30T23:30:34.641Z,11.73
2018-04-30T23:33:02.993Z,11.64
2018-04-30T23:35:31.332Z,11.58
2018-04-30T23:37:59.700Z,11.58
2018-04-30T23:40:28.780Z,11.60
2018-04-30T23:42:57.920Z,11.78
2018-04-30T23:45:26.249Z,11.66
2018-04-30T23:47:55.339Z,11.58
2018-04-30T23:50:23.745Z,11.65
2018-04-30T23:52:52.835Z,11.60
2018-04-30T23:55:21.972Z,11.69
2018-04-30T23:57:50.348Z,11.71
